Startpagina
METAR-TAF:

METAR-TAF

Vliegvelden :

Fort Richardson, Alaska, Verenigde Staten

breedte: 61-15-45N, lengte: 149-39-17W, hoogte: 115 m

Actueel weer

Dit bericht is 1 uur en het 3 minuten geleden gemaakt, om 01:58 UTC
Weinig wind
Temperatuur -4°C
Vochtigheid 93%
Druk 992 hPa
Zicht: 16.1 km
Weinig wolken op 7500 ft
Gebroken wolken op 19000 ft
Gebroken wolken op 25000 ft

METAR: PAFR 120158Z AUTO 00000KT 10SM FEW075 BKN190 BKN250 M04/M05 A2929 RMK AO2 SLP929 T10431048 FZRANO $

Tijdstip: 18:01 (03:01 UTC)


TAF: ontbreekt

Waarnemingen en weersverwachtingen van meer dan 4000 vliegvelden (METAR en TAF).

De beschikbare stations zijn de gele en rode punten op de kaart.

Ga met uw muis naar het station om de naam te zien.

Klik dan om waarnemingen en weersverwachtingen te zien.

kaart wijzigen: klik op de groene knoppen met een zwart kruis om in te zoomen, op de groene knop met een streepje om uit te zoomen of op de groene pijlen voor aangrenzende kaarten.


METAR-TAF: